createdAt,value
2023-03-27T00:01:13.310Z,9.90
2023-03-27T00:03:42.693Z,9.90
2023-03-27T00:06:17.781Z,9.90
2023-03-27T00:08:51.000Z,9.90
2023-03-27T00:11:20.231Z,9.90
2023-03-27T00:13:51.149Z,9.90
2023-03-27T00:16:25.102Z,9.80
2023-03-27T00:18:53.257Z,9.90
2023-03-27T00:21:22.334Z,9.90
2023-03-27T00:23:50.133Z,9.90
2023-03-27T00:26:18.018Z,9.90
2023-03-27T00:28:45.875Z,9.90
2023-03-27T00:31:15.427Z,9.90
2023-03-27T00:33:43.536Z,9.90
2023-03-27T00:36:11.392Z,9.90
2023-03-27T00:38:43.245Z,9.90
2023-03-27T00:41:10.884Z,9.80
2023-03-27T00:43:44.778Z,9.80
2023-03-27T00:46:15.438Z,9.80
2023-03-27T00:48:46.920Z,9.70
2023-03-27T00:51:16.494Z,9.70
2023-03-27T00:53:45.420Z,9.70
2023-03-27T00:56:13.420Z,9.70
2023-03-27T00:58:44.763Z,9.60
2023-03-27T01:01:14.564Z,9.60
2023-03-27T01:03:44.418Z,9.60
2023-03-27T01:06:14.183Z,9.50
2023-03-27T01:08:43.898Z,9.50
2023-03-27T01:11:18.107Z,9.40
2023-03-27T01:13:59.592Z,9.30
2023-03-27T01:16:49.311Z,9.30
2023-03-27T01:19:41.808Z,9.20
2023-03-27T01:22:17.791Z,9.20
2023-03-27T01:25:31.369Z,9.10
2023-03-27T01:28:14.110Z,9.10
2023-03-27T01:30:50.181Z,9.00
2023-03-27T01:33:56.488Z,9.00
2023-03-27T01:36:55.590Z,8.90
2023-03-27T01:39:35.735Z,8.90
2023-03-27T01:42:21.745Z,8.80
2023-03-27T01:45:03.094Z,8.70
2023-03-27T01:47:33.343Z,8.70
2023-03-27T01:50:07.077Z,8.60
2023-03-27T01:52:39.561Z,8.50
2023-03-27T01:55:12.223Z,8.40
2023-03-27T01:58:03.421Z,8.40
2023-03-27T02:00:52.263Z,8.30
2023-03-27T02:03:37.505Z,8.30
2023-03-27T02:06:08.633Z,8.20
2023-03-27T02:08:44.968Z,8.20
2023-03-27T02:11:16.260Z,8.10
2023-03-27T02:13:51.918Z,8.10
2023-03-27T02:16:25.042Z,8.00
2023-03-27T02:18:58.126Z,8.00
2023-03-27T02:21:25.575Z,7.90
2023-03-27T02:23:53.165Z,7.90
2023-03-27T02:26:20.687Z,7.90
2023-03-27T02:28:50.808Z,7.80
2023-03-27T02:32:03.536Z,7.80
2023-03-27T02:34:58.983Z,7.80
2023-03-27T02:37:44.531Z,7.80
2023-03-27T02:40:51.806Z,7.70
2023-03-27T02:44:08.878Z,7.70
2023-03-27T02:47:12.087Z,7.70
2023-03-27T02:49:48.801Z,7.70
2023-03-27T02:52:22.899Z,7.60
2023-03-27T02:54:56.798Z,7.60
2023-03-27T02:57:29.214Z,7.60
2023-03-27T03:00:20.184Z,7.60
2023-03-27T03:03:07.090Z,7.50
2023-03-27T03:05:37.204Z,7.50
2023-03-27T03:08:05.561Z,7.50
2023-03-27T03:10:33.562Z,7.50
2023-03-27T03:13:00.755Z,7.50
2023-03-27T03:15:28.187Z,7.50
2023-03-27T03:17:55.576Z,7.40
2023-03-27T03:20:23.983Z,7.40
2023-03-27T03:22:51.374Z,7.40
2023-03-27T03:25:19.740Z,7.40
2023-03-27T03:27:47.016Z,7.40
2023-03-27T03:30:16.641Z,7.40
2023-03-27T03:33:05.342Z,7.40
2023-03-27T03:35:34.759Z,7.30
2023-03-27T03:38:06.405Z,7.30
2023-03-27T03:40:43.546Z,7.30
2023-03-27T03:43:11.182Z,7.30
2023-03-27T03:45:38.622Z,7.30
2023-03-27T03:48:06.886Z,7.30
2023-03-27T03:50:34.272Z,7.20
2023-03-27T03:53:01.696Z,7.30
2023-03-27T03:55:30.125Z,7.20
2023-03-27T03:57:58.469Z,7.20
2023-03-27T04:00:28.233Z,7.20
2023-03-27T04:02:58.061Z,7.20
2023-03-27T04:05:25.990Z,7.20
2023-03-27T04:07:55.363Z,7.20
2023-03-27T04:10:50.784Z,7.20
2023-03-27T04:13:32.442Z,7.20
2023-03-27T04:16:08.133Z,7.10
2023-03-27T04:18:41.180Z,7.20
2023-03-27T04:21:14.310Z,7.10
2023-03-27T04:23:48.076Z,7.10
2023-03-27T04:26:26.150Z,7.10
2023-03-27T04:29:25.885Z,7.10
2023-03-27T04:32:18.883Z,7.00
2023-03-27T04:35:12.091Z,7.00
2023-03-27T04:37:56.838Z,6.90
2023-03-27T04:40:49.338Z,6.90
2023-03-27T04:43:17.965Z,6.80
2023-03-27T04:45:47.453Z,6.80
2023-03-27T04:48:15.908Z,6.80
2023-03-27T04:50:50.375Z,6.70
2023-03-27T04:53:35.828Z,6.70
2023-03-27T04:56:05.402Z,6.70
2023-03-27T04:58:37.525Z,6.60
2023-03-27T05:01:12.087Z,6.60
2023-03-27T05:04:02.353Z,6.50
2023-03-27T05:06:53.286Z,6.50
2023-03-27T05:09:22.433Z,6.50
2023-03-27T05:11:50.952Z,6.50
2023-03-27T05:14:21.399Z,6.50
2023-03-27T05:16:50.539Z,6.50
2023-03-27T05:19:21.983Z,6.50
2023-03-27T05:21:57.561Z,6.50
2023-03-27T05:24:24.951Z,6.50
2023-03-27T05:26:54.650Z,6.60
2023-03-27T05:29:22.014Z,6.60
2023-03-27T05:32:00.068Z,6.60
2023-03-27T05:34:40.741Z,6.50
2023-03-27T05:37:11.523Z,6.60
2023-03-27T05:39:59.317Z,6.60
2023-03-27T05:42:26.760Z,6.50
2023-03-27T05:44:55.587Z,6.60
2023-03-27T05:47:23.566Z,6.60
2023-03-27T05:49:53.848Z,6.60
2023-03-27T05:52:21.191Z,6.60
2023-03-27T05:54:56.717Z,6.60
2023-03-27T05:57:24.525Z,6.60
2023-03-27T05:59:56.953Z,6.60
2023-03-27T06:02:25.970Z,6.60
2023-03-27T06:04:58.969Z,6.60
2023-03-27T06:07:30.531Z,6.60
2023-03-27T06:10:07.566Z,6.60
2023-03-27T06:12:46.425Z,6.60
2023-03-27T06:15:28.935Z,6.60
2023-03-27T06:18:17.790Z,6.60
2023-03-27T06:20:45.218Z,6.60
2023-03-27T06:23:13.243Z,6.70
2023-03-27T06:25:41.381Z,6.60
2023-03-27T06:28:11.565Z,6.60
2023-03-27T06:30:49.945Z,6.60
2023-03-27T06:33:35.055Z,6.60
2023-03-27T06:36:07.142Z,6.60
2023-03-27T06:38:37.215Z,6.60
2023-03-27T06:41:05.894Z,6.60
2023-03-27T06:44:02.382Z,6.60
2023-03-27T06:46:45.209Z,6.70
2023-03-27T06:49:17.080Z,6.70
2023-03-27T06:51:44.590Z,6.70
2023-03-27T06:54:13.890Z,6.60
2023-03-27T06:56:46.454Z,6.70
2023-03-27T06:59:18.595Z,6.70
2023-03-27T07:01:48.655Z,6.70
2023-03-27T07:04:54.197Z,6.80
2023-03-27T07:07:32.570Z,6.90
2023-03-27T07:10:00.179Z,7.10
2023-03-27T07:12:27.854Z,7.30
2023-03-27T07:14:55.875Z,7.70
2023-03-27T07:17:34.878Z,8.10
2023-03-27T07:20:13.985Z,8.40
2023-03-27T07:22:44.476Z,8.60
2023-03-27T07:25:22.685Z,8.90
2023-03-27T07:27:51.181Z,9.30
2023-03-27T07:30:18.912Z,9.60
2023-03-27T07:32:46.972Z,9.70
2023-03-27T07:35:15.136Z,9.80
2023-03-27T07:38:03.597Z,9.80
2023-03-27T07:40:40.325Z,9.70
2023-03-27T07:43:28.264Z,9.60
2023-03-27T07:45:56.455Z,9.60
2023-03-27T07:48:26.055Z,9.50
2023-03-27T07:51:07.126Z,9.40
2023-03-27T07:53:41.599Z,9.40
2023-03-27T07:56:23.483Z,9.30
2023-03-27T07:59:05.911Z,9.40
2023-03-27T08:01:34.158Z,9.60
2023-03-27T08:04:02.490Z,9.90
2023-03-27T08:06:30.503Z,10.30
2023-03-27T08:08:58.635Z,10.80
2023-03-27T08:11:31.036Z,11.40
2023-03-27T08:13:59.618Z,11.90
2023-03-27T08:16:30.006Z,12.50
2023-03-27T08:19:01.014Z,13.10
2023-03-27T08:21:34.147Z,13.80
2023-03-27T08:24:04.647Z,14.30
2023-03-27T08:26:35.105Z,14.70
2023-03-27T08:29:07.459Z,14.80
2023-03-27T08:31:35.631Z,14.70
2023-03-27T08:34:05.604Z,14.40
2023-03-27T08:36:45.333Z,14.10
2023-03-27T08:39:13.884Z,13.70
2023-03-27T08:42:05.370Z,13.40
2023-03-27T08:44:36.078Z,13.30
2023-03-27T08:47:23.537Z,13.30
2023-03-27T08:50:09.086Z,13.50
2023-03-27T08:52:46.704Z,13.60
2023-03-27T08:55:33.746Z,13.70
2023-03-27T08:58:21.353Z,14.00
2023-03-27T09:01:07.038Z,14.40
2023-03-27T09:03:55.822Z,14.70
2023-03-27T09:06:34.098Z,15.10
2023-03-27T09:09:22.290Z,15.30
2023-03-27T09:12:02.412Z,15.30
2023-03-27T09:14:42.036Z,15.20
2023-03-27T09:17:28.483Z,15.10
2023-03-27T09:20:23.298Z,15.20
2023-03-27T09:23:05.441Z,15.30
2023-03-27T09:26:01.022Z,15.30
2023-03-27T09:29:13.620Z,15.10
2023-03-27T09:31:53.204Z,14.70
2023-03-27T09:34:26.599Z,14.30
2023-03-27T09:36:55.853Z,13.80
2023-03-27T09:39:29.906Z,13.40
2023-03-27T09:42:19.227Z,13.00
2023-03-27T09:44:51.015Z,12.70
2023-03-27T09:47:32.819Z,12.30
2023-03-27T09:50:29.931Z,11.90
2023-03-27T09:53:15.086Z,11.60
2023-03-27T09:56:07.775Z,11.20
2023-03-27T09:58:43.867Z,11.10
2023-03-27T10:01:14.287Z,10.90
2023-03-27T10:03:48.940Z,10.90
2023-03-27T10:06:26.466Z,11.00
2023-03-27T10:09:22.772Z,11.10
2023-03-27T10:12:02.305Z,11.10
2023-03-27T10:14:34.508Z,11.00
2023-03-27T10:17:04.407Z,11.00
2023-03-27T10:19:35.446Z,10.90
2023-03-27T10:22:33.855Z,10.80
2023-03-27T10:25:04.709Z,10.90
2023-03-27T10:28:08.216Z,10.90
2023-03-27T10:30:40.961Z,11.00
2023-03-27T10:33:36.728Z,11.00
2023-03-27T10:36:14.507Z,11.10
2023-03-27T10:38:43.964Z,11.10
2023-03-27T10:41:31.327Z,11.10
2023-03-27T10:44:00.746Z,11.00
2023-03-27T10:46:30.575Z,11.00
2023-03-27T10:49:17.575Z,10.90
2023-03-27T10:52:05.752Z,10.80
2023-03-27T10:55:16.709Z,10.80
2023-03-27T10:57:51.723Z,10.80
2023-03-27T11:00:35.451Z,11.00
2023-03-27T11:03:14.950Z,11.10
2023-03-27T11:05:49.295Z,11.20
2023-03-27T11:08:36.165Z,11.20
2023-03-27T11:11:14.362Z,11.20
2023-03-27T11:13:49.016Z,11.10
2023-03-27T11:16:27.467Z,11.00
2023-03-27T11:19:37.904Z,10.80
2023-03-27T11:22:37.361Z,10.80
2023-03-27T11:25:25.006Z,10.70
2023-03-27T11:28:14.080Z,10.80
2023-03-27T11:30:52.258Z,10.90
2023-03-27T11:33:36.883Z,10.90
2023-03-27T11:36:40.772Z,11.00
2023-03-27T11:39:41.337Z,11.00
2023-03-27T11:42:21.212Z,11.00
2023-03-27T11:44:49.442Z,11.00
2023-03-27T11:47:56.077Z,11.10
2023-03-27T11:50:50.399Z,11.10
2023-03-27T11:53:30.537Z,11.20
2023-03-27T11:56:12.927Z,11.20
2023-03-27T11:59:01.508Z,11.20
2023-03-27T12:01:56.964Z,11.20
2023-03-27T12:04:36.637Z,11.10
2023-03-27T12:08:02.242Z,10.80
2023-03-27T12:10:38.868Z,10.40
2023-03-27T12:13:38.570Z,10.20
2023-03-27T12:16:18.512Z,9.90
2023-03-27T12:19:26.822Z,9.70
2023-03-27T12:22:31.487Z,9.60
2023-03-27T12:25:38.490Z,9.50
2023-03-27T12:28:45.278Z,9.40
2023-03-27T12:31:52.697Z,9.40
2023-03-27T12:34:51.832Z,9.30
2023-03-27T12:37:24.960Z,9.20
2023-03-27T12:39:56.687Z,9.10
2023-03-27T12:42:50.338Z,9.10
2023-03-27T12:45:24.723Z,9.10
2023-03-27T12:48:12.414Z,9.20
2023-03-27T12:50:43.911Z,9.30
2023-03-27T12:53:37.836Z,9.50
2023-03-27T12:56:17.780Z,9.60
2023-03-27T12:58:52.329Z,9.70
2023-03-27T13:01:52.609Z,9.80
2023-03-27T13:04:50.453Z,9.90
2023-03-27T13:07:43.854Z,10.00
2023-03-27T13:10:44.209Z,10.00
2023-03-27T13:13:45.234Z,10.10
2023-03-27T13:16:22.746Z,10.10
2023-03-27T13:19:09.330Z,10.10
2023-03-27T13:22:06.099Z,10.20
2023-03-27T13:25:07.578Z,10.30
2023-03-27T13:28:04.038Z,10.40
2023-03-27T13:30:50.568Z,10.50
2023-03-27T13:33:45.089Z,10.60
2023-03-27T13:36:20.537Z,10.70
2023-03-27T13:38:52.575Z,10.80
2023-03-27T13:41:45.720Z,10.80
2023-03-27T13:44:41.368Z,10.90
2023-03-27T13:47:35.013Z,10.90
2023-03-27T13:50:26.214Z,10.90
2023-03-27T13:53:19.000Z,10.90
2023-03-27T13:56:15.846Z,10.90
2023-03-27T13:59:11.928Z,11.00
2023-03-27T14:01:49.637Z,11.10
2023-03-27T14:04:41.470Z,11.20
2023-03-27T14:07:30.914Z,11.20
2023-03-27T14:10:33.676Z,11.30
2023-03-27T14:13:36.559Z,11.30
2023-03-27T14:16:29.556Z,11.40
2023-03-27T14:19:26.823Z,11.30
2023-03-27T14:22:05.334Z,11.20
2023-03-27T14:24:46.917Z,11.10
2023-03-27T14:27:30.503Z,11.00
2023-03-27T14:30:14.412Z,10.80
2023-03-27T14:32:43.451Z,10.70
2023-03-27T14:35:37.481Z,10.60
2023-03-27T14:38:21.898Z,10.50
2023-03-27T14:40:52.943Z,10.50
2023-03-27T14:43:30.494Z,10.60
2023-03-27T14:46:04.300Z,10.70
2023-03-27T14:48:38.734Z,10.80
2023-03-27T14:51:13.366Z,10.80
2023-03-27T14:53:44.249Z,10.80
2023-03-27T14:56:37.682Z,10.80
2023-03-27T14:59:42.781Z,10.80
2023-03-27T15:02:26.321Z,10.70
2023-03-27T15:05:08.159Z,10.60
2023-03-27T15:07:37.785Z,10.50
2023-03-27T15:10:22.375Z,10.40
2023-03-27T15:13:10.788Z,10.30
2023-03-27T15:15:46.987Z,10.30
2023-03-27T15:18:34.047Z,10.20
2023-03-27T15:21:07.020Z,10.20
2023-03-27T15:23:43.379Z,10.10
2023-03-27T15:26:21.529Z,10.00
2023-03-27T15:29:03.751Z,10.00
2023-03-27T15:31:32.894Z,9.90
2023-03-27T15:34:08.906Z,9.80
2023-03-27T15:36:37.804Z,9.80
2023-03-27T15:39:06.804Z,9.80
2023-03-27T15:41:34.909Z,9.80
2023-03-27T15:44:24.043Z,9.80
2023-03-27T15:46:59.419Z,9.80
2023-03-27T15:49:34.197Z,9.90
2023-03-27T15:52:30.107Z,10.00
2023-03-27T15:54:59.418Z,10.10
2023-03-27T15:57:31.244Z,10.10
2023-03-27T16:00:09.938Z,10.10
2023-03-27T16:02:40.707Z,10.00
2023-03-27T16:05:08.280Z,10.00
2023-03-27T16:07:38.666Z,9.90
2023-03-27T16:10:07.571Z,9.90
2023-03-27T16:12:52.282Z,9.90
2023-03-27T16:15:37.006Z,9.80
2023-03-27T16:18:18.680Z,9.80
2023-03-27T16:20:45.932Z,9.60
2023-03-27T16:23:13.550Z,9.50
2023-03-27T16:25:41.396Z,9.40
2023-03-27T16:28:09.890Z,9.40
2023-03-27T16:30:39.671Z,9.30
2023-03-27T16:33:21.120Z,9.20
2023-03-27T16:35:49.348Z,9.20
2023-03-27T16:38:17.825Z,9.10
2023-03-27T16:40:45.626Z,9.00
2023-03-27T16:43:13.432Z,8.90
2023-03-27T16:45:41.353Z,8.80
2023-03-27T16:48:10.512Z,8.80
2023-03-27T16:50:37.877Z,8.80
2023-03-27T16:53:05.296Z,8.80
2023-03-27T16:55:32.560Z,8.80
2023-03-27T16:57:59.847Z,8.80
2023-03-27T17:00:27.110Z,8.80
2023-03-27T17:02:54.451Z,8.80
2023-03-27T17:05:21.798Z,8.80
2023-03-27T17:07:49.140Z,8.80
2023-03-27T17:10:16.792Z,8.80
2023-03-27T17:12:44.240Z,8.70
2023-03-27T17:15:11.660Z,8.70
2023-03-27T17:17:39.141Z,8.70
2023-03-27T17:20:07.869Z,8.60
2023-03-27T17:22:36.047Z,8.60
2023-03-27T17:25:05.722Z,8.50
2023-03-27T17:27:33.820Z,8.50
2023-03-27T17:30:01.159Z,8.40
2023-03-27T17:32:28.571Z,8.40
2023-03-27T17:34:56.319Z,8.40
2023-03-27T17:37:25.831Z,8.40
2023-03-27T17:39:53.488Z,8.40
2023-03-27T17:42:20.853Z,8.40
2023-03-27T17:44:48.304Z,8.30
2023-03-27T17:47:15.902Z,8.20
2023-03-27T17:49:44.901Z,8.00
2023-03-27T17:52:13.275Z,7.80
2023-03-27T17:54:40.704Z,7.60
2023-03-27T17:57:08.095Z,7.50
2023-03-27T17:59:36.292Z,7.30
2023-03-27T18:02:03.734Z,7.20
2023-03-27T18:04:31.312Z,7.10
2023-03-27T18:06:58.573Z,7.00
2023-03-27T18:09:26.092Z,6.90
2023-03-27T18:11:53.471Z,6.80
2023-03-27T18:14:20.865Z,6.70
2023-03-27T18:16:48.630Z,6.60
2023-03-27T18:19:16.150Z,6.50
2023-03-27T18:21:43.643Z,6.40
2023-03-27T18:24:11.101Z,6.40
2023-03-27T18:26:38.349Z,6.30
2023-03-27T18:29:05.569Z,6.20
2023-03-27T18:31:32.867Z,6.10
2023-03-27T18:34:00.173Z,6.10
2023-03-27T18:36:27.518Z,6.00
2023-03-27T18:38:54.825Z,6.00
2023-03-27T18:41:22.219Z,6.10
2023-03-27T18:43:49.564Z,6.10
2023-03-27T18:46:17.320Z,6.00
2023-03-27T18:48:46.267Z,6.00
2023-03-27T18:51:13.972Z,6.00
2023-03-27T18:53:41.354Z,6.00
2023-03-27T18:56:08.795Z,5.90
2023-03-27T18:58:36.736Z,5.80
2023-03-27T19:01:09.420Z,5.80
2023-03-27T19:03:38.864Z,5.70
2023-03-27T19:06:07.873Z,5.70
2023-03-27T19:08:38.004Z,5.70
2023-03-27T19:11:06.417Z,5.60
2023-03-27T19:13:52.354Z,5.60
2023-03-27T19:16:30.904Z,5.50
2023-03-27T19:19:17.158Z,5.50
2023-03-27T19:22:08.745Z,5.40
2023-03-27T19:24:43.751Z,5.40
2023-03-27T19:27:22.970Z,5.30
2023-03-27T19:29:53.304Z,5.20
2023-03-27T19:32:21.275Z,5.20
2023-03-27T19:34:48.679Z,5.20
2023-03-27T19:37:16.085Z,5.10
2023-03-27T19:39:43.270Z,5.10
2023-03-27T19:42:10.898Z,5.10
2023-03-27T19:44:38.249Z,5.10
2023-03-27T19:47:07.605Z,5.10
2023-03-27T19:49:36.166Z,5.10
2023-03-27T19:52:19.779Z,5.10
2023-03-27T19:54:47.312Z,5.10
2023-03-27T19:57:14.819Z,5.10
2023-03-27T19:59:42.196Z,5.10
2023-03-27T20:02:12.652Z,5.10
2023-03-27T20:04:40.255Z,5.10
2023-03-27T20:07:08.121Z,5.20
2023-03-27T20:09:36.339Z,5.20
2023-03-27T20:12:04.799Z,5.20
2023-03-27T20:14:32.157Z,5.20
2023-03-27T20:16:59.559Z,5.10
2023-03-27T20:19:30.187Z,5.10
2023-03-27T20:21:59.869Z,5.10
2023-03-27T20:24:28.799Z,5.10
2023-03-27T20:26:59.233Z,5.20
2023-03-27T20:29:27.030Z,5.20
2023-03-27T20:31:54.509Z,5.20
2023-03-27T20:34:22.200Z,5.10
2023-03-27T20:36:52.902Z,5.10
2023-03-27T20:39:29.402Z,5.10
2023-03-27T20:41:59.061Z,5.00
2023-03-27T20:44:35.059Z,4.90
2023-03-27T20:47:12.460Z,4.90
2023-03-27T20:49:44.214Z,4.90
2023-03-27T20:52:17.544Z,4.80
2023-03-27T20:54:45.343Z,4.80
2023-03-27T20:57:14.551Z,4.70
2023-03-27T20:59:41.970Z,4.70
2023-03-27T21:02:18.513Z,4.60
2023-03-27T21:04:47.431Z,4.50
2023-03-27T21:07:15.851Z,4.50
2023-03-27T21:09:45.759Z,4.40
2023-03-27T21:12:13.112Z,4.40
2023-03-27T21:14:40.699Z,4.40
2023-03-27T21:17:08.439Z,4.30
2023-03-27T21:19:35.934Z,4.30
2023-03-27T21:22:03.413Z,4.30
2023-03-27T21:24:31.047Z,4.30
2023-03-27T21:26:59.976Z,4.30
2023-03-27T21:29:27.305Z,4.20
2023-03-27T21:31:54.507Z,4.20
2023-03-27T21:34:22.473Z,4.20
2023-03-27T21:36:49.978Z,4.20
2023-03-27T21:39:17.293Z,4.20
2023-03-27T21:41:44.482Z,4.20
2023-03-27T21:44:12.012Z,4.20
2023-03-27T21:46:39.572Z,4.10
2023-03-27T21:49:07.212Z,4.10
2023-03-27T21:51:34.830Z,4.00
2023-03-27T21:54:02.075Z,4.00
2023-03-27T21:56:29.301Z,4.00
2023-03-27T21:58:57.395Z,3.90
2023-03-27T22:01:25.996Z,3.90
2023-03-27T22:03:53.407Z,3.90
2023-03-27T22:06:20.917Z,3.90
2023-03-27T22:08:48.256Z,3.80
2023-03-27T22:11:16.053Z,3.80
2023-03-27T22:13:43.398Z,3.80
2023-03-27T22:16:13.612Z,3.80
2023-03-27T22:18:41.324Z,3.80
2023-03-27T22:21:17.919Z,3.70
2023-03-27T22:23:45.863Z,3.70
2023-03-27T22:26:13.266Z,3.70
2023-03-27T22:28:40.738Z,3.70
2023-03-27T22:31:08.269Z,3.60
2023-03-27T22:33:36.775Z,3.60
2023-03-27T22:36:05.850Z,3.60
2023-03-27T22:38:33.365Z,3.60
2023-03-27T22:41:01.000Z,3.60
2023-03-27T22:43:29.030Z,3.60
2023-03-27T22:45:57.198Z,3.60
2023-03-27T22:48:24.692Z,3.60
2023-03-27T22:50:56.389Z,3.50
2023-03-27T22:53:25.278Z,3.50
2023-03-27T22:55:54.644Z,3.50
2023-03-27T22:58:22.377Z,3.60
2023-03-27T23:00:50.978Z,3.50
2023-03-27T23:03:19.398Z,3.60
2023-03-27T23:05:49.082Z,3.60
2023-03-27T23:08:18.905Z,3.70
2023-03-27T23:10:46.360Z,3.80
2023-03-27T23:13:13.829Z,3.80
2023-03-27T23:15:41.268Z,3.90
2023-03-27T23:18:08.649Z,4.00
2023-03-27T23:20:35.988Z,4.10
2023-03-27T23:23:03.514Z,4.10
2023-03-27T23:25:31.060Z,4.20
2023-03-27T23:27:58.476Z,4.20
2023-03-27T23:30:25.892Z,4.30
2023-03-27T23:32:53.178Z,4.30
2023-03-27T23:35:20.500Z,4.30
2023-03-27T23:37:47.945Z,4.40
2023-03-27T23:40:15.619Z,4.40
2023-03-27T23:42:43.095Z,4.40
2023-03-27T23:45:10.846Z,4.40
2023-03-27T23:47:39.387Z,4.50
2023-03-27T23:50:07.114Z,4.50
2023-03-27T23:52:34.453Z,4.50
2023-03-27T23:55:01.859Z,4.40
2023-03-27T23:57:29.347Z,4.40
2023-03-27T23:59:56.902Z,4.40
